Time;durP1;ratioP1;P1;durP2;ratioP2;P2;SDS_P1;SDS_P2;PMS_P1;PMS_P2;Temp;Humidity;BMP_temperature;BMP_pressure;BME280_temperature;BME280_humidity;BME280_pressure;Samples;Min_cycle;Max_cycle;Signal;HPM_P1;HPM_P2
2022/09/10 00:00:53;;;;;;;12.73;10.00;;;;;;;;;;5038410;28;20139;-73
2022/09/10 00:03:20;;;;;;;14.27;10.32;;;;;;;;;;5050058;28;20045;-73
2022/09/10 00:05:46;;;;;;;12.33;10.13;;;;;;;;;;5052817;28;20049;-73
2022/09/10 00:08:13;;;;;;;13.73;10.52;;;;;;;;;;5054531;28;20416;-74
2022/09/10 00:10:41;;;;;;;13.02;10.57;;;;;;;;;;5054419;28;20057;-73
2022/09/10 00:13:08;;;;;;;;;;;;;;;;;;5055482;28;20049;-73
2022/09/10 00:15:38;;;;;;;11.52;9.93;;;;;;;;;;5054468;28;19929;-73
2022/09/10 00:18:07;;;;;;;12.73;9.85;;;;;;;;;;5054867;28;20056;-73
2022/09/10 00:20:35;;;;;;;11.25;9.63;;;;;;;;;;5053487;28;20049;-73
2022/09/10 00:23:02;;;;;;;11.65;10.35;;;;;;;;;;5054733;28;20059;-73
2022/09/10 00:25:29;;;;;;;11.63;10.43;;;;;;;;;;5054369;28;20041;-73
2022/09/10 00:27:55;;;;;;;10.07;9.18;;;;;;;;;;5054519;28;20041;-73
2022/09/10 00:30:22;;;;;;;10.65;9.65;;;;;;;;;;5054549;28;20055;-73
2022/09/10 00:32:51;;;;;;;12.18;10.00;;;;;;;;;;5054358;28;20047;-73
2022/09/10 00:35:18;;;;;;;11.23;9.70;;;;;;;;;;5054493;28;20059;-73
2022/09/10 00:37:45;;;;;;;12.23;9.48;;;;;;;;;;5054409;28;20053;-73
2022/09/10 00:40:15;;;;;;;11.63;9.15;;;;;;;;;;5054285;28;20049;-73
2022/09/10 00:42:42;;;;;;;13.98;8.77;;;;;;;;;;5054045;28;20063;-73
2022/09/10 00:45:16;;;;;;;8.67;7.20;;;;;;;;;;5054276;28;20045;-73
2022/09/10 00:47:45;;;;;;;8.32;7.40;;;;;;;;;;5053951;28;20288;-73
2022/09/10 00:50:12;;;;;;;8.73;7.18;;;;;;;;;;5053818;28;20404;-72
2022/09/10 00:52:38;;;;;;;10.43;7.35;;;;;;;;;;5054192;28;20048;-73
2022/09/10 00:55:05;;;;;;;8.70;6.43;;;;;;;;;;5054055;28;20103;-73
2022/09/10 00:57:32;;;;;;;11.38;6.95;;;;;;;;;;5054011;28;20049;-73
2022/09/10 01:00:00;;;;;;;8.20;6.30;;;;;;;;;;5054066;28;20053;-73
2022/09/10 01:02:27;;;;;;;7.13;5.95;;;;;;;;;;5053939;28;20048;-73
2022/09/10 01:04:55;;;;;;;7.72;6.68;;;;;;;;;;5053673;28;20053;-73
2022/09/10 01:07:21;;;;;;;8.30;7.30;;;;;;;;;;5053843;28;20047;-73
2022/09/10 01:09:48;;;;;;;9.67;6.93;;;;;;;;;;5053901;28;20045;-73
2022/09/10 01:12:35;;;;;;;9.57;6.75;;;;;;;;;;5053101;28;20772;-73
2022/09/10 01:15:01;;;;;;;9.35;6.63;;;;;;;;;;5036083;28;20053;-73
2022/09/10 01:17:30;;;;;;;10.20;6.65;;;;;;;;;;5053613;28;20055;-73
2022/09/10 01:19:57;;;;;;;7.88;6.38;;;;;;;;;;5053557;28;20049;-73
2022/09/10 01:22:42;;;;;;;6.60;6.00;;;;;;;;;;5052326;28;20056;-72
2022/09/10 01:25:27;;;;;;;8.55;6.72;;;;;;;;;;5053234;28;20052;-73
2022/09/10 01:27:54;;;;;;;10.00;6.60;;;;;;;;;;5053516;28;20045;-73
2022/09/10 01:30:23;;;;;;;8.85;5.90;;;;;;;;;;5052957;28;20055;-73
2022/09/10 01:33:06;;;;;;;7.20;5.85;;;;;;;;;;5053459;28;20044;-73
2022/09/10 01:35:36;;;;;;;7.93;5.90;;;;;;;;;;5053048;28;20485;-73
2022/09/10 01:38:04;;;;;;;8.38;6.20;;;;;;;;;;5053211;28;20067;-73
2022/09/10 01:40:32;;;;;;;8.73;6.72;;;;;;;;;;5052907;28;20064;-73
2022/09/10 01:43:00;;;;;;;7.18;6.47;;;;;;;;;;5051618;28;20057;-73
2022/09/10 01:45:27;;;;;;;10.00;7.32;;;;;;;;;;5052788;28;20497;-72
2022/09/10 01:47:54;;;;;;;;;;;;;;;;;;5053405;28;20041;-72
2022/09/10 01:50:42;;;;;;;12.15;8.77;;;;;;;;;;5053086;28;19925;-73
2022/09/10 01:53:29;;;;;;;9.85;7.68;;;;;;;;;;5053044;28;20412;-72
2022/09/10 01:55:56;;;;;;;;;;;;;;;;;;5053039;28;20049;-73
2022/09/10 01:58:29;;;;;;;13.85;7.78;;;;;;;;;;5052912;28;19925;-73
2022/09/10 02:01:06;;;;;;;11.63;8.23;;;;;;;;;;5052721;28;20049;-73
2022/09/10 02:03:34;;;;;;;12.07;8.63;;;;;;;;;;5052817;28;20053;-73
2022/09/10 02:06:00;;;;;;;9.75;8.60;;;;;;;;;;5052326;28;20048;-73
2022/09/10 02:08:29;;;;;;;10.50;8.60;;;;;;;;;;5052397;28;20049;-73
2022/09/10 02:10:58;;;;;;;13.00;9.10;;;;;;;;;;5052353;28;20052;-73
2022/09/10 02:13:26;;;;;;;17.02;8.75;;;;;;;;;;5052555;28;20118;-73
2022/09/10 02:15:53;;;;;;;9.52;8.50;;;;;;;;;;5052529;28;20393;-73
2022/09/10 02:18:19;;;;;;;11.27;8.48;;;;;;;;;;5052626;28;20059;-73
2022/09/10 02:20:47;;;;;;;12.10;8.33;;;;;;;;;;5052510;28;20056;-73
2022/09/10 02:23:17;;;;;;;10.95;8.32;;;;;;;;;;5051683;28;20057;-73
2022/09/10 02:25:43;;;;;;;11.40;8.52;;;;;;;;;;5051047;28;20051;-73
2022/09/10 02:28:10;;;;;;;12.88;8.93;;;;;;;;;;5052340;28;20389;-73
2022/09/10 02:30:37;;;;;;;11.48;9.02;;;;;;;;;;5052276;28;20045;-73
2022/09/10 02:33:03;;;;;;;12.85;7.85;;;;;;;;;;5051974;28;20539;-73
2022/09/10 02:35:30;;;;;;;10.88;8.23;;;;;;;;;;5051841;28;20060;-73
2022/09/10 02:37:57;;;;;;;8.75;7.25;;;;;;;;;;5052379;28;20418;-73
2022/09/10 02:40:23;;;;;;;8.65;7.57;;;;;;;;;;5050571;28;20048;-73
2022/09/10 02:42:50;;;;;;;10.95;7.75;;;;;;;;;;5052143;28;20404;-73
2022/09/10 02:45:16;;;;;;;11.68;7.72;;;;;;;;;;5051620;28;20076;-73
2022/09/10 02:47:43;;;;;;;11.02;7.25;;;;;;;;;;5052071;28;20058;-73
2022/09/10 02:50:10;;;;;;;10.90;6.70;;;;;;;;;;5052008;28;20052;-73
2022/09/10 02:52:36;;;;;;;8.57;7.05;;;;;;;;;;5051682;28;20499;-73
2022/09/10 02:55:03;;;;;;;9.10;6.57;;;;;;;;;;5051948;28;20051;-73
2022/09/10 02:57:29;;;;;;;11.30;6.60;;;;;;;;;;5051605;28;20041;-72
2022/09/10 02:59:56;;;;;;;11.02;6.38;;;;;;;;;;5051800;28;20049;-73
2022/09/10 03:02:22;;;;;;;7.00;6.18;;;;;;;;;;5051613;28;20064;-73
2022/09/10 03:04:48;;;;;;;7.85;6.50;;;;;;;;;;5051879;28;20048;-73
2022/09/10 03:07:18;;;;;;;8.10;6.82;;;;;;;;;;5051721;28;20045;-73
2022/09/10 03:09:45;;;;;;;8.65;5.97;;;;;;;;;;5051795;28;20147;-73
2022/09/10 03:12:14;;;;;;;8.43;6.95;;;;;;;;;;5051155;28;20057;-73
2022/09/10 03:14:41;;;;;;;9.32;6.28;;;;;;;;;;5051696;28;20045;-73
2022/09/10 03:17:08;;;;;;;6.60;6.00;;;;;;;;;;5051741;28;20049;-73
2022/09/10 03:19:35;;;;;;;8.53;6.57;;;;;;;;;;5051482;28;20714;-73
2022/09/10 03:22:01;;;;;;;10.30;5.90;;;;;;;;;;5051483;28;20045;-73
2022/09/10 03:24:28;;;;;;;7.72;6.30;;;;;;;;;;5051440;28;20053;-73
2022/09/10 03:26:54;;;;;;;7.20;6.38;;;;;;;;;;5051397;28;20068;-73
2022/09/10 03:29:22;;;;;;;10.13;6.28;;;;;;;;;;5051604;28;20045;-73
2022/09/10 03:31:50;;;;;;;9.75;6.25;;;;;;;;;;5051386;28;20041;-73
2022/09/10 03:34:17;;;;;;;7.85;6.00;;;;;;;;;;5052948;28;20049;-73
2022/09/10 03:36:46;;;;;;;8.10;6.43;;;;;;;;;;5055551;28;20064;-73
2022/09/10 03:39:13;;;;;;;7.05;5.88;;;;;;;;;;5054105;28;20074;-73
2022/09/10 03:41:39;;;;;;;8.10;6.63;;;;;;;;;;5055200;28;20055;-73
2022/09/10 03:44:06;;;;;;;10.88;6.82;;;;;;;;;;5055192;28;20412;-73
2022/09/10 03:46:32;;;;;;;10.35;6.25;;;;;;;;;;5055442;28;20052;-73
2022/09/10 03:49:02;;;;;;;8.23;6.18;;;;;;;;;;5055357;28;20047;-73
2022/09/10 03:51:28;;;;;;;7.45;6.28;;;;;;;;;;5055125;28;20048;-73
2022/09/10 03:53:55;;;;;;;10.82;6.88;;;;;;;;;;5055142;28;20049;-74
2022/09/10 03:56:21;;;;;;;9.98;6.78;;;;;;;;;;5055406;28;20049;-74
2022/09/10 03:58:48;;;;;;;9.15;6.75;;;;;;;;;;5055251;28;20063;-73
2022/09/10 04:01:17;;;;;;;8.63;7.28;;;;;;;;;;5054778;28;20075;-73
2022/09/10 04:03:45;;;;;;;9.95;6.97;;;;;;;;;;5054832;28;20496;-73
2022/09/10 04:06:12;;;;;;;8.45;7.13;;;;;;;;;;5054957;28;20049;-73
2022/09/10 04:08:39;;;;;;;8.40;6.78;;;;;;;;;;5055037;28;20416;-73
2022/09/10 04:11:05;;;;;;;9.43;6.82;;;;;;;;;;5054622;28;20057;-73
2022/09/10 04:13:32;;;;;;;8.57;7.20;;;;;;;;;;5054779;28;20051;-73
2022/09/10 04:16:01;;;;;;;10.23;6.95;;;;;;;;;;5054629;28;20052;-73
2022/09/10 04:18:28;;;;;;;8.25;6.88;;;;;;;;;;5054528;28;20049;-73
2022/09/10 04:20:55;;;;;;;8.40;6.55;;;;;;;;;;5054369;28;20441;-73
2022/09/10 04:23:21;;;;;;;9.80;7.65;;;;;;;;;;5054695;28;20069;-73
2022/09/10 04:25:48;;;;;;;9.48;6.38;;;;;;;;;;5054585;28;20052;-73
2022/09/10 04:28:17;;;;;;;7.05;6.10;;;;;;;;;;5054448;28;20045;-73
2022/09/10 04:30:44;;;;;;;6.78;6.07;;;;;;;;;;5054550;28;20055;-73
2022/09/10 04:33:10;;;;;;;7.55;6.85;;;;;;;;;;5054413;28;20428;-73
2022/09/10 04:35:38;;;;;;;7.05;6.30;;;;;;;;;;5054410;28;20052;-73
2022/09/10 04:38:05;;;;;;;7.53;6.35;;;;;;;;;;5054427;28;20045;-73
2022/09/10 04:40:33;;;;;;;9.10;5.85;;;;;;;;;;5054416;28;20051;-73
2022/09/10 04:42:59;;;;;;;7.38;6.00;;;;;;;;;;5054358;28;20044;-73
2022/09/10 04:45:26;;;;;;;7.72;6.22;;;;;;;;;;5053292;28;20510;-73
2022/09/10 04:47:53;;;;;;;8.05;6.18;;;;;;;;;;5053906;28;20059;-73
2022/09/10 04:50:20;;;;;;;6.65;5.95;;;;;;;;;;5054106;28;20166;-73
2022/09/10 04:52:47;;;;;;;8.48;6.88;;;;;;;;;;5054140;28;20051;-73
2022/09/10 04:55:13;;;;;;;8.73;6.90;;;;;;;;;;5054129;28;20052;-73
2022/09/10 04:57:41;;;;;;;9.43;6.82;;;;;;;;;;5054080;28;20059;-73
2022/09/10 05:00:07;;;;;;;9.45;6.32;;;;;;;;;;5052801;28;20075;-73
2022/09/10 05:02:36;;;;;;;10.43;6.90;;;;;;;;;;5053627;28;20155;-73
2022/09/10 05:05:02;;;;;;;7.88;6.07;;;;;;;;;;5053945;28;20056;-73
2022/09/10 05:07:29;;;;;;;6.30;5.70;;;;;;;;;;5053671;28;20051;-73
2022/09/10 05:09:56;;;;;;;9.67;6.80;;;;;;;;;;5053807;28;20052;-73
2022/09/10 05:12:23;;;;;;;7.18;6.47;;;;;;;;;;5053660;28;20059;-73
2022/09/10 05:14:49;;;;;;;9.48;6.70;;;;;;;;;;5053847;28;20055;-73
2022/09/10 05:17:15;;;;;;;9.57;7.25;;;;;;;;;;5053379;28;20049;-73
2022/09/10 05:19:42;;;;;;;10.07;7.30;;;;;;;;;;5053282;28;20049;-73
2022/09/10 05:22:08;;;;;;;8.68;7.80;;;;;;;;;;5053271;28;20049;-73
2022/09/10 05:24:35;;;;;;;8.25;7.45;;;;;;;;;;5053308;28;20523;-73
2022/09/10 05:27:01;;;;;;;8.43;7.63;;;;;;;;;;5053635;28;20045;-73
2022/09/10 05:29:27;;;;;;;10.70;7.10;;;;;;;;;;5053456;28;20050;-73
2022/09/10 05:31:54;;;;;;;9.68;7.32;;;;;;;;;;5053515;28;20053;-73
2022/09/10 05:34:20;;;;;;;8.82;7.05;;;;;;;;;;5053404;28;20053;-73
2022/09/10 05:36:47;;;;;;;9.90;7.00;;;;;;;;;;5053222;28;20049;-73
2022/09/10 05:39:14;;;;;;;11.93;7.78;;;;;;;;;;5053091;28;20055;-73
2022/09/10 05:41:42;;;;;;;13.63;7.68;;;;;;;;;;5053036;28;20599;-73
2022/09/10 05:44:08;;;;;;;9.85;7.00;;;;;;;;;;5052841;28;20591;-73
2022/09/10 05:46:34;;;;;;;12.32;6.93;;;;;;;;;;5052788;28;20056;-73
2022/09/10 05:49:01;;;;;;;8.23;6.30;;;;;;;;;;5053057;28;20096;-73
2022/09/10 05:51:29;;;;;;;8.05;5.90;;;;;;;;;;5052787;28;20500;-73
2022/09/10 05:53:56;;;;;;;10.02;6.03;;;;;;;;;;5051559;28;20048;-73
2022/09/10 05:56:24;;;;;;;9.45;5.53;;;;;;;;;;5052787;28;20552;-73
2022/09/10 05:58:50;;;;;;;6.93;5.90;;;;;;;;;;5051594;28;20048;-73
2022/09/10 06:01:17;;;;;;;8.52;5.43;;;;;;;;;;5052527;28;20544;-73
2022/09/10 06:03:43;;;;;;;8.40;5.57;;;;;;;;;;5052852;28;20061;-73
2022/09/10 06:06:10;;;;;;;9.15;5.25;;;;;;;;;;5052652;28;20053;-72
2022/09/10 06:08:38;;;;;;;8.57;5.45;;;;;;;;;;5052791;28;20411;-73
2022/09/10 06:11:05;;;;;;;8.48;5.60;;;;;;;;;;5052506;28;20123;-73
2022/09/10 06:13:32;;;;;;;7.53;5.57;;;;;;;;;;5052427;28;20045;-73
2022/09/10 06:16:00;;;;;;;6.80;4.80;;;;;;;;;;5052477;28;20055;-73
2022/09/10 06:18:27;;;;;;;7.55;4.93;;;;;;;;;;5052561;28;20041;-73
2022/09/10 06:21:00;;;;;;;6.05;4.82;;;;;;;;;;5052214;28;20891;-72
2022/09/10 06:23:27;;;;;;;7.40;5.88;;;;;;;;;;5052442;28;20048;-73
2022/09/10 06:26:00;;;;;;;8.52;5.05;;;;;;;;;;5052186;28;20053;-73
2022/09/10 06:28:27;;;;;;;8.23;4.88;;;;;;;;;;5052353;28;20079;-72
2022/09/10 06:30:54;;;;;;;5.05;4.55;;;;;;;;;;5052060;28;20045;-72
2022/09/10 06:33:21;;;;;;;5.18;4.65;;;;;;;;;;5052147;28;20041;-73
2022/09/10 06:35:51;;;;;;;5.60;5.05;;;;;;;;;;5051988;28;20045;-73
2022/09/10 06:38:19;;;;;;;6.13;5.22;;;;;;;;;;5052031;28;20053;-72
2022/09/10 06:40:55;;;;;;;5.13;4.57;;;;;;;;;;5052099;28;20394;-72
2022/09/10 06:43:27;;;;;;;5.10;4.60;;;;;;;;;;5043438;28;20056;-73
2022/09/10 06:45:54;;;;;;;7.38;5.07;;;;;;;;;;5037857;28;20057;-72
2022/09/10 06:48:21;;;;;;;5.85;5.20;;;;;;;;;;5031577;28;20049;-76
2022/09/10 06:51:11;;;;;;;5.95;4.72;;;;;;;;;;5031442;28;20405;-74
2022/09/10 06:53:38;;;;;;;5.47;4.97;;;;;;;;;;5031376;28;20527;-76
2022/09/10 06:56:07;;;;;;;4.70;4.30;;;;;;;;;;5030932;28;20051;-77
2022/09/10 06:58:34;;;;;;;4.80;4.35;;;;;;;;;;5030776;28;20049;-72
2022/09/10 07:01:07;;;;;;;5.30;4.43;;;;;;;;;;5030745;28;20115;-73
2022/09/10 07:03:41;;;;;;;6.22;4.78;;;;;;;;;;5031159;28;20045;-73
2022/09/10 07:06:09;;;;;;;5.10;4.28;;;;;;;;;;5031560;28;20046;-77
2022/09/10 07:08:36;;;;;;;6.15;4.40;;;;;;;;;;5045619;28;20400;-74
2022/09/10 07:11:03;;;;;;;5.25;4.25;;;;;;;;;;5020351;28;20057;-74
2022/09/10 07:13:30;;;;;;;4.60;4.20;;;;;;;;;;5031133;28;20478;-73
2022/09/10 07:15:57;;;;;;;4.63;4.20;;;;;;;;;;5031381;28;20049;-73
2022/09/10 07:18:24;;;;;;;4.75;4.30;;;;;;;;;;5039805;28;20485;-74
2022/09/10 07:20:51;;;;;;;6.72;4.63;;;;;;;;;;5051607;28;20052;-73
2022/09/10 07:23:19;;;;;;;7.10;4.30;;;;;;;;;;5052061;28;20057;-75
2022/09/10 07:25:46;;;;;;;5.28;4.28;;;;;;;;;;5051793;28;20063;-73
2022/09/10 07:28:14;;;;;;;5.00;4.05;;;;;;;;;;5051165;28;20045;-73
2022/09/10 07:30:41;;;;;;;5.57;3.95;;;;;;;;;;5029845;28;20045;-76
2022/09/10 07:33:10;;;;;;;4.78;3.88;;;;;;;;;;5031304;28;20099;-76
2022/09/10 07:35:37;;;;;;;5.88;4.30;;;;;;;;;;5031102;28;20052;-76
2022/09/10 07:38:03;;;;;;;5.85;4.05;;;;;;;;;;5029056;28;20501;-75
2022/09/10 07:40:31;;;;;;;4.80;3.60;;;;;;;;;;5030533;28;20041;-76
2022/09/10 07:42:58;;;;;;;4.38;3.95;;;;;;;;;;5030536;28;20501;-76
2022/09/10 07:45:25;;;;;;;7.77;4.00;;;;;;;;;;5031133;28;20064;-73
2022/09/10 07:47:51;;;;;;;4.07;3.60;;;;;;;;;;5050583;28;20326;-75
2022/09/10 07:50:18;;;;;;;5.22;3.15;;;;;;;;;;5043471;28;20046;-74
2022/09/10 07:52:44;;;;;;;6.07;3.85;;;;;;;;;;5042786;28;20037;-72
2022/09/10 07:55:12;;;;;;;5.05;3.60;;;;;;;;;;5030264;28;20048;-72
2022/09/10 07:57:39;;;;;;;3.72;3.38;;;;;;;;;;5030414;28;20056;-71
2022/09/10 08:00:11;;;;;;;6.90;3.50;;;;;;;;;;5030851;28;20056;-74
2022/09/10 08:02:38;;;;;;;6.30;2.95;;;;;;;;;;5033261;28;20041;-74
2022/09/10 08:05:04;;;;;;;4.68;2.65;;;;;;;;;;5030865;28;20139;-72
2022/09/10 08:07:31;;;;;;;6.37;3.13;;;;;;;;;;5030870;28;20400;-72
2022/09/10 08:09:57;;;;;;;4.28;3.13;;;;;;;;;;5030567;28;20278;-71
2022/09/10 08:12:24;;;;;;;5.07;2.40;;;;;;;;;;5030324;28;20050;-71
2022/09/10 08:14:51;;;;;;;3.80;2.20;;;;;;;;;;5030892;28;20041;-71
2022/09/10 08:17:17;;;;;;;3.50;2.53;;;;;;;;;;5030837;28;20055;-70
2022/09/10 08:19:44;;;;;;;3.65;2.22;;;;;;;;;;5030300;28;20287;-73
2022/09/10 08:22:10;;;;;;;2.80;1.90;;;;;;;;;;5039914;28;20053;-74
2022/09/10 08:24:39;;;;;;;2.47;1.67;;;;;;;;;;5054602;28;20127;-73
2022/09/10 08:27:05;;;;;;;5.70;1.90;;;;;;;;;;5054710;28;20053;-72
2022/09/10 08:29:31;;;;;;;3.63;2.17;;;;;;;;;;5041838;28;20052;-73
2022/09/10 08:31:58;;;;;;;5.43;2.22;;;;;;;;;;5033849;28;20052;-71
2022/09/10 08:34:25;;;;;;;3.90;1.98;;;;;;;;;;5045026;28;20049;-71
2022/09/10 08:36:52;;;;;;;4.25;1.92;;;;;;;;;;5054114;28;20505;-72
2022/09/10 08:39:19;;;;;;;;;;;;;;;;;;5037750;28;20045;-72
2022/09/10 08:41:51;;;;;;;1.45;1.30;;;;;;;;;;5034008;28;19928;-73
2022/09/10 08:44:17;;;;;;;3.00;1.40;;;;;;;;;;5033643;28;20128;-72
2022/09/10 08:46:49;;;;;;;3.55;1.40;;;;;;;;;;5036474;28;20056;-73
2022/09/10 08:49:34;;;;;;;2.45;1.40;;;;;;;;;;5053542;28;20055;-72
2022/09/10 08:52:03;;;;;;;3.65;1.10;;;;;;;;;;5054044;28;20041;-72
2022/09/10 08:54:36;;;;;;;1.70;1.25;;;;;;;;;;5048928;28;20049;-70
2022/09/10 08:57:04;;;;;;;1.98;1.20;;;;;;;;;;5031083;28;20060;-75
2022/09/10 08:59:35;;;;;;;4.00;0.95;;;;;;;;;;5032901;28;20065;-80
2022/09/10 09:02:19;;;;;;;2.00;0.80;;;;;;;;;;5032890;28;20402;-76
2022/09/10 09:05:13;;;;;;;2.08;0.90;;;;;;;;;;5032849;28;20116;-75
2022/09/10 09:07:39;;;;;;;1.85;0.95;;;;;;;;;;5032355;28;20055;-75
2022/09/10 09:10:26;;;;;;;3.15;0.95;;;;;;;;;;5029743;28;20053;-73
2022/09/10 09:12:52;;;;;;;1.40;1.15;;;;;;;;;;5033232;28;20049;-76
2022/09/10 09:15:29;;;;;;;1.73;1.00;;;;;;;;;;5032882;28;20052;-76
2022/09/10 09:18:15;;;;;;;1.88;1.10;;;;;;;;;;5033295;28;20141;-76
2022/09/10 09:20:47;;;;;;;2.40;1.25;;;;;;;;;;5032932;28;20049;-81
2022/09/10 09:23:17;;;;;;;1.17;1.17;;;;;;;;;;5032115;28;20512;-74
2022/09/10 09:25:43;;;;;;;6.55;1.60;;;;;;;;;;5033326;28;20057;-76
2022/09/10 09:28:14;;;;;;;1.97;1.50;;;;;;;;;;5032992;28;20056;-75
2022/09/10 09:30:48;;;;;;;6.63;2.28;;;;;;;;;;5033165;28;20079;-73
2022/09/10 09:33:17;;;;;;;4.18;1.35;;;;;;;;;;5032593;28;20490;-74
2022/09/10 09:35:53;;;;;;;8.73;1.15;;;;;;;;;;5030081;28;20063;-74
2022/09/10 09:38:23;;;;;;;5.07;0.95;;;;;;;;;;5033081;28;20477;-73
2022/09/10 09:40:56;;;;;;;3.28;1.60;;;;;;;;;;5032911;28;20075;-75
2022/09/10 09:43:30;;;;;;;5.30;1.33;;;;;;;;;;5033077;28;20053;-75
2022/09/10 09:45:56;;;;;;;2.92;1.15;;;;;;;;;;5032993;28;20144;-72
2022/09/10 09:48:23;;;;;;;5.95;4.28;;;;;;;;;;5025333;28;20046;-74
2022/09/10 09:50:55;;;;;;;3.97;2.70;;;;;;;;;;5025746;28;20413;-75
2022/09/10 09:53:24;;;;;;;3.88;1.60;;;;;;;;;;5051132;28;20041;-75
2022/09/10 09:55:55;;;;;;;2.40;0.65;;;;;;;;;;5042818;28;20519;-75
2022/09/10 09:58:28;;;;;;;0.47;0.47;;;;;;;;;;5042647;28;20056;-76
2022/09/10 10:01:03;;;;;;;1.02;0.70;;;;;;;;;;5052247;28;20053;-76
2022/09/10 10:03:31;;;;;;;1.55;0.80;;;;;;;;;;5039966;28;20099;-76
2022/09/10 10:06:05;;;;;;;1.17;0.60;;;;;;;;;;5048709;28;20476;-71
2022/09/10 10:08:32;;;;;;;4.15;0.60;;;;;;;;;;5045190;28;20485;-72
2022/09/10 10:10:59;;;;;;;2.83;0.95;;;;;;;;;;5045314;28;20081;-74
2022/09/10 10:13:34;;;;;;;1.17;0.60;;;;;;;;;;5052717;28;20069;-74
2022/09/10 10:16:12;;;;;;;1.27;0.60;;;;;;;;;;5041572;28;20083;-73
2022/09/10 10:18:40;;;;;;;0.77;0.50;;;;;;;;;;5050578;28;20057;-73
2022/09/10 10:21:12;;;;;;;1.58;0.70;;;;;;;;;;5051569;28;20420;-74
2022/09/10 10:23:39;;;;;;;0.90;0.60;;;;;;;;;;5052121;28;20055;-75
2022/09/10 10:26:16;;;;;;;1.70;0.60;;;;;;;;;;5052487;28;20053;-74
2022/09/10 10:28:46;;;;;;;3.78;1.15;;;;;;;;;;5051797;28;20051;-73
2022/09/10 10:31:13;;;;;;;11.57;2.85;;;;;;;;;;5052192;28;20053;-73
2022/09/10 10:34:05;;;;;;;1.73;1.08;;;;;;;;;;5052096;28;20047;-73
2022/09/10 10:36:52;;;;;;;1.67;0.93;;;;;;;;;;5050103;28;20416;-73
2022/09/10 10:39:38;;;;;;;1.67;0.90;;;;;;;;;;5050940;28;20071;-74
2022/09/10 10:42:05;;;;;;;1.02;0.70;;;;;;;;;;5051868;28;20049;-72
2022/09/10 10:44:43;;;;;;;0.93;0.80;;;;;;;;;;5050675;28;20047;-72
2022/09/10 10:47:29;;;;;;;1.75;0.95;;;;;;;;;;5051288;28;20051;-73
2022/09/10 10:50:02;;;;;;;21.25;4.35;;;;;;;;;;5050516;28;20493;-74
2022/09/10 10:52:43;;;;;;;1.48;0.90;;;;;;;;;;5051961;28;20131;-73
2022/09/10 10:55:26;;;;;;;46.60;7.57;;;;;;;;;;5052318;28;20401;-74
2022/09/10 10:57:52;;;;;;;3.40;1.50;;;;;;;;;;5051852;28;20049;-74
2022/09/10 11:00:19;;;;;;;2.03;1.08;;;;;;;;;;5051659;28;20052;-71
2022/09/10 11:02:54;;;;;;;1.00;0.77;;;;;;;;;;5051801;28;20053;-74
2022/09/10 11:05:34;;;;;;;1.10;0.60;;;;;;;;;;5051421;28;20501;-77
2022/09/10 11:08:05;;;;;;;8.18;2.17;;;;;;;;;;5050406;28;20049;-74
2022/09/10 11:10:35;;;;;;;1.00;0.70;;;;;;;;;;5051598;28;20061;-70
2022/09/10 11:13:02;;;;;;;2.20;0.60;;;;;;;;;;5052126;28;20059;-74
2022/09/10 11:15:47;;;;;;;1.95;0.60;;;;;;;;;;5051468;28;20041;-74
2022/09/10 11:18:17;;;;;;;4.57;1.10;;;;;;;;;;5039919;28;20049;-76
2022/09/10 11:20:49;;;;;;;2.13;0.55;;;;;;;;;;5030808;28;20061;-75
2022/09/10 11:23:19;;;;;;;1.63;0.70;;;;;;;;;;5046705;28;20053;-73
2022/09/10 11:25:54;;;;;;;2.22;0.50;;;;;;;;;;5051421;28;20056;-72
2022/09/10 11:28:23;;;;;;;1.45;0.50;;;;;;;;;;5051534;28;20408;-74
2022/09/10 11:30:53;;;;;;;1.40;0.45;;;;;;;;;;5051738;28;20049;-74
2022/09/10 11:33:38;;;;;;;2.47;0.60;;;;;;;;;;5051522;28;20049;-74
2022/09/10 11:36:04;;;;;;;0.95;0.40;;;;;;;;;;5051269;28;20045;-82
2022/09/10 11:38:43;;;;;;;1.47;0.50;;;;;;;;;;5051228;28;20049;-83
2022/09/10 11:41:23;;;;;;;0.93;0.40;;;;;;;;;;5049918;28;20883;-75
2022/09/10 11:44:09;;;;;;;1.48;0.60;;;;;;;;;;5051143;28;20500;-86
2022/09/10 11:46:38;;;;;;;2.90;0.65;;;;;;;;;;5051231;28;20056;-79
2022/09/10 11:49:05;;;;;;;1.80;0.60;;;;;;;;;;5050529;28;20045;-76
2022/09/10 11:51:35;;;;;;;1.00;0.50;;;;;;;;;;5050832;28;20397;-75
2022/09/10 11:54:09;;;;;;;1.70;0.35;;;;;;;;;;5042706;28;20133;-77
2022/09/10 11:56:35;;;;;;;1.10;0.35;;;;;;;;;;5035131;28;20047;-71
2022/09/10 11:59:08;;;;;;;1.77;0.20;;;;;;;;;;5037955;28;20051;-82
2022/09/10 12:01:40;;;;;;;2.13;0.38;;;;;;;;;;5033323;28;20060;-72
2022/09/10 12:04:13;;;;;;;1.05;0.43;;;;;;;;;;5034559;28;20504;-77
2022/09/10 12:07:00;;;;;;;2.65;0.40;;;;;;;;;;5033207;28;20059;-75
2022/09/10 12:09:26;;;;;;;19.08;3.38;;;;;;;;;;5034342;28;20500;-79
2022/09/10 12:12:12;;;;;;;10.75;2.95;;;;;;;;;;5032887;28;20061;-79
2022/09/10 12:14:39;;;;;;;18.30;3.30;;;;;;;;;;5034876;28;20042;-75
2022/09/10 12:17:12;;;;;;;0.77;0.50;;;;;;;;;;5032940;28;20049;-73
2022/09/10 12:19:45;;;;;;;2.60;0.65;;;;;;;;;;5033238;28;20049;-74
2022/09/10 12:22:17;;;;;;;0.73;0.40;;;;;;;;;;5043046;28;20522;-74
2022/09/10 12:24:51;;;;;;;0.65;0.50;;;;;;;;;;5054540;28;20056;-79
2022/09/10 12:27:18;;;;;;;2.20;0.70;;;;;;;;;;5034583;28;20053;-73
2022/09/10 12:29:45;;;;;;;0.50;0.40;;;;;;;;;;5036625;28;20053;-73
2022/09/10 12:32:17;;;;;;;1.55;0.80;;;;;;;;;;5053424;28;20037;-74
2022/09/10 12:34:47;;;;;;;18.10;3.13;;;;;;;;;;5040259;28;20049;-84
2022/09/10 12:37:21;;;;;;;2.53;0.85;;;;;;;;;;5032417;28;20046;-74
2022/09/10 12:39:48;;;;;;;5.50;1.13;;;;;;;;;;5049567;28;20055;-70
2022/09/10 12:42:14;;;;;;;;;;;;;;;;;;5052267;28;20134;-72
2022/09/10 12:44:41;;;;;;;1.77;0.70;;;;;;;;;;5035617;28;19925;-83
2022/09/10 12:47:13;;;;;;;9.18;1.23;;;;;;;;;;5033364;28;20128;-79
2022/09/10 12:49:48;;;;;;;222.52;37.13;;;;;;;;;;5032933;28;20080;-84
2022/09/10 12:52:19;;;;;;;1.63;0.60;;;;;;;;;;5032086;28;20041;-74
2022/09/10 12:54:45;;;;;;;0.63;0.30;;;;;;;;;;5041935;28;20056;-75
2022/09/10 12:57:21;;;;;;;0.47;0.40;;;;;;;;;;5052951;28;20128;-79
2022/09/10 12:59:47;;;;;;;1.08;0.20;;;;;;;;;;5041526;28;20053;-79
2022/09/10 13:02:20;;;;;;;1.60;0.28;;;;;;;;;;5047112;28;20053;-80
2022/09/10 13:04:52;;;;;;;0.20;0.20;;;;;;;;;;5053085;28;20064;-81
2022/09/10 13:07:24;;;;;;;0.90;0.20;;;;;;;;;;5051452;28;20052;-74
2022/09/10 13:09:58;;;;;;;0.50;0.22;;;;;;;;;;5034881;28;20123;-75
2022/09/10 13:12:25;;;;;;;0.55;0.40;;;;;;;;;;5032694;28;20115;-73
2022/09/10 13:14:52;;;;;;;0.40;0.40;;;;;;;;;;5033155;28;20056;-75
2022/09/10 13:17:58;;;;;;;0.80;0.77;;;;;;;;;;5037506;28;20045;-77
2022/09/10 13:20:24;;;;;;;1.27;0.50;;;;;;;;;;5039459;28;20123;-79
2022/09/10 13:22:53;;;;;;;1.92;0.50;;;;;;;;;;5052802;28;20390;-78
2022/09/10 13:25:24;;;;;;;0.82;0.43;;;;;;;;;;5052761;28;20048;-78
2022/09/10 13:27:50;;;;;;;1.30;0.40;;;;;;;;;;5053141;28;20057;-78
2022/09/10 13:30:18;;;;;;;0.28;0.28;;;;;;;;;;5052972;28;20055;-78
2022/09/10 13:32:51;;;;;;;0.63;0.28;;;;;;;;;;5051698;28;20405;-79
2022/09/10 13:35:20;;;;;;;2.15;0.30;;;;;;;;;;5052856;28;20092;-78
2022/09/10 13:37:47;;;;;;;0.45;0.28;;;;;;;;;;5052976;28;20051;-77
2022/09/10 13:40:25;;;;;;;0.65;0.30;;;;;;;;;;5051388;28;20053;-75
2022/09/10 13:42:54;;;;;;;3.50;0.52;;;;;;;;;;5052818;28;20049;-75
2022/09/10 13:45:25;;;;;;;2.25;0.30;;;;;;;;;;5051460;28;20045;-75
2022/09/10 13:48:02;;;;;;;4.50;0.47;;;;;;;;;;5052743;28;20052;-76
2022/09/10 13:50:33;;;;;;;1.00;0.40;;;;;;;;;;5052819;28;20056;-76
2022/09/10 13:53:03;;;;;;;3.42;0.45;;;;;;;;;;5052638;28;20051;-77
2022/09/10 13:55:30;;;;;;;0.70;0.30;;;;;;;;;;5052660;28;20055;-74
2022/09/10 13:57:56;;;;;;;;;;;;;;;;;;5052537;28;20053;-76
2022/09/10 14:00:25;;;;;;;0.63;0.40;;;;;;;;;;5052155;28;19921;-80
2022/09/10 14:02:53;;;;;;;2.58;0.50;;;;;;;;;;5051365;28;20386;-72
2022/09/10 14:05:43;;;;;;;0.45;0.28;;;;;;;;;;5052188;28;20067;-72
2022/09/10 14:08:11;;;;;;;0.77;0.40;;;;;;;;;;5050347;28;20051;-74
2022/09/10 14:10:50;;;;;;;0.40;0.40;;;;;;;;;;5033720;28;20053;-73
2022/09/10 14:13:18;;;;;;;1.50;0.60;;;;;;;;;;5039349;28;20124;-80
2022/09/10 14:15:46;;;;;;;0.85;0.60;;;;;;;;;;5052357;28;20413;-75
2022/09/10 14:18:13;;;;;;;1.33;0.60;;;;;;;;;;5050147;28;20060;-75
2022/09/10 14:20:39;;;;;;;0.95;0.40;;;;;;;;;;5052141;28;20049;-74
2022/09/10 14:23:11;;;;;;;2.07;0.30;;;;;;;;;;5051548;28;20485;-74
2022/09/10 14:25:39;;;;;;;0.20;0.20;;;;;;;;;;5051673;28;20280;-75
2022/09/10 14:28:14;;;;;;;1.40;0.30;;;;;;;;;;5051563;28;20055;-76
2022/09/10 14:30:41;;;;;;;1.95;0.28;;;;;;;;;;5042096;28;20045;-75
2022/09/10 14:33:20;;;;;;;1.85;0.20;;;;;;;;;;5031255;28;20899;-75
2022/09/10 14:35:50;;;;;;;0.55;0.32;;;;;;;;;;5034325;28;20087;-79
2022/09/10 14:38:19;;;;;;;0.30;0.20;;;;;;;;;;5030815;28;20053;-77
2022/09/10 14:40:46;;;;;;;0.38;0.20;;;;;;;;;;5028828;28;20405;-77
2022/09/10 14:43:25;;;;;;;0.35;0.22;;;;;;;;;;5030426;28;20056;-76
2022/09/10 14:45:51;;;;;;;1.48;0.50;;;;;;;;;;5031302;28;20053;-76
2022/09/10 14:48:26;;;;;;;1.45;0.40;;;;;;;;;;5031176;28;20057;-75
2022/09/10 14:51:12;;;;;;;2.60;0.60;;;;;;;;;;5032402;28;20056;-75
2022/09/10 14:53:39;;;;;;;2.10;0.40;;;;;;;;;;5049588;28;20044;-75
2022/09/10 14:56:09;;;;;;;0.22;0.20;;;;;;;;;;5031028;28;20049;-74
2022/09/10 14:58:36;;;;;;;0.90;0.20;;;;;;;;;;5028253;28;20064;-75